sensor_id;sensor_type;location;lat;lon;timestamp;pressure;altitude;pressure_sealevel;temperature
71897;BMP280;59767;51.344;12.362;2023-07-20T00:01:37;163307.47;;;18.00
71897;BMP280;59767;51.344;12.362;2023-07-20T00:04:42;163327.13;;;18.07
71897;BMP280;59767;51.344;12.362;2023-07-20T00:07:46;163319.28;;;18.04
71897;BMP280;59767;51.344;12.362;2023-07-20T00:10:50;163340.28;;;18.12
71897;BMP280;59767;51.344;12.362;2023-07-20T00:13:54;163303.47;;;17.98
71897;BMP280;59767;51.344;12.362;2023-07-20T00:16:58;163307.47;;;18.00
71897;BMP280;59767;51.344;12.362;2023-07-20T00:20:02;163296.97;;;17.96
71897;BMP280;59767;51.344;12.362;2023-07-20T00:23:08;163290.41;;;17.93
71897;BMP280;59767;51.344;12.362;2023-07-20T00:26:12;163283.81;;;17.91
71897;BMP280;59767;51.344;12.362;2023-07-20T00:29:17;163294.34;;;17.95
71897;BMP280;59767;51.344;12.362;2023-07-20T00:32:21;163251.03;;;17.78
71897;BMP280;59767;51.344;12.362;2023-07-20T00:35:25;163236.63;;;17.73
71897;BMP280;59767;51.344;12.362;2023-07-20T00:38:29;163237.91;;;17.73
71897;BMP280;59767;51.344;12.362;2023-07-20T00:41:33;163241.81;;;17.75
71897;BMP280;59767;51.344;12.362;2023-07-20T00:44:38;163244.47;;;17.76
71897;BMP280;59767;51.344;12.362;2023-07-20T00:47:42;163247.09;;;17.77
71897;BMP280;59767;51.344;12.362;2023-07-20T00:50:46;163261.56;;;17.82
71897;BMP280;59767;51.344;12.362;2023-07-20T00:53:52;163278.53;;;17.89
71897;BMP280;59767;51.344;12.362;2023-07-20T00:56:58;163294.34;;;17.95
71897;BMP280;59767;51.344;12.362;2023-07-20T01:00:03;163298.31;;;17.96
71897;BMP280;59767;51.344;12.362;2023-07-20T01:03:07;163291.69;;;17.94
71897;BMP280;59767;51.344;12.362;2023-07-20T01:09:36;163293.00;;;17.94
71897;BMP280;59767;51.344;12.362;2023-07-20T01:12:46;163303.47;;;17.98
71897;BMP280;59767;51.344;12.362;2023-07-20T01:15:56;163310.09;;;18.01
71897;BMP280;59767;51.344;12.362;2023-07-20T01:19:00;163300.88;;;17.97
71897;BMP280;59767;51.344;12.362;2023-07-20T01:22:29;163295.63;;;17.95
71897;BMP280;59767;51.344;12.362;2023-07-20T01:26:02;163283.81;;;17.91
71897;BMP280;59767;51.344;12.362;2023-07-20T01:29:17;163274.66;;;17.87
71897;BMP280;59767;51.344;12.362;2023-07-20T01:32:26;163275.94;;;17.88
71897;BMP280;59767;51.344;12.362;2023-07-20T01:35:32;163262.84;;;17.83
71897;BMP280;59767;51.344;12.362;2023-07-20T01:38:38;163260.22;;;17.82
71897;BMP280;59767;51.344;12.362;2023-07-20T01:41:42;163272.03;;;17.86
71897;BMP280;59767;51.344;12.362;2023-07-20T01:44:47;163282.53;;;17.90
71897;BMP280;59767;51.344;12.362;2023-07-20T01:47:51;163279.88;;;17.89
71897;BMP280;59767;51.344;12.362;2023-07-20T01:50:55;163268.06;;;17.85
71897;BMP280;59767;51.344;12.362;2023-07-20T01:53:59;163253.59;;;17.79
71897;BMP280;59767;51.344;12.362;2023-07-20T01:57:03;163268.06;;;17.85
71897;BMP280;59767;51.344;12.362;2023-07-20T02:00:08;163258.91;;;17.81
71897;BMP280;59767;51.344;12.362;2023-07-20T02:03:13;163233.97;;;17.72
71897;BMP280;59767;51.344;12.362;2023-07-20T02:06:17;163235.28;;;17.72
71897;BMP280;59767;51.344;12.362;2023-07-20T02:09:21;163223.50;;;17.68
71897;BMP280;59767;51.344;12.362;2023-07-20T02:12:26;163194.63;;;17.57
71897;BMP280;59767;51.344;12.362;2023-07-20T02:15:30;163174.91;;;17.49
71897;BMP280;59767;51.344;12.362;2023-07-20T02:18:34;163164.41;;;17.45
71897;BMP280;59767;51.344;12.362;2023-07-20T02:21:40;163152.59;;;17.41
71897;BMP280;59767;51.344;12.362;2023-07-20T02:24:44;163147.38;;;17.39
71897;BMP280;59767;51.344;12.362;2023-07-20T02:27:48;163152.59;;;17.41
71897;BMP280;59767;51.344;12.362;2023-07-20T02:30:53;163177.53;;;17.50
71897;BMP280;59767;51.344;12.362;2023-07-20T02:33:58;163198.56;;;17.58
71897;BMP280;59767;51.344;12.362;2023-07-20T02:37:02;163202.47;;;17.60
71897;BMP280;59767;51.344;12.362;2023-07-20T02:40:06;163197.22;;;17.58
71897;BMP280;59767;51.344;12.362;2023-07-20T02:43:11;163211.69;;;17.63
71897;BMP280;59767;51.344;12.362;2023-07-20T02:46:15;163203.75;;;17.60
71897;BMP280;59767;51.344;12.362;2023-07-20T02:49:20;163209.03;;;17.62
71897;BMP280;59767;51.344;12.362;2023-07-20T02:52:24;163215.59;;;17.65
71897;BMP280;59767;51.344;12.362;2023-07-20T02:55:28;163222.16;;;17.67
71897;BMP280;59767;51.344;12.362;2023-07-20T02:58:34;163220.81;;;17.67
71897;BMP280;59767;51.344;12.362;2023-07-20T03:01:42;163230.00;;;17.70
71897;BMP280;59767;51.344;12.362;2023-07-20T03:04:46;163236.63;;;17.73
71897;BMP280;59767;51.344;12.362;2023-07-20T03:07:51;163215.59;;;17.65
71897;BMP280;59767;51.344;12.362;2023-07-20T03:10:55;163236.63;;;17.73
71897;BMP280;59767;51.344;12.362;2023-07-20T03:13:59;163223.50;;;17.68
71897;BMP280;59767;51.344;12.362;2023-07-20T03:17:03;163226.13;;;17.69
71897;BMP280;59767;51.344;12.362;2023-07-20T03:20:08;163215.59;;;17.65
71897;BMP280;59767;51.344;12.362;2023-07-20T03:23:14;163210.34;;;17.63
71897;BMP280;59767;51.344;12.362;2023-07-20T03:26:19;163207.75;;;17.62
71897;BMP280;59767;51.344;12.362;2023-07-20T03:29:24;163223.50;;;17.68
71897;BMP280;59767;51.344;12.362;2023-07-20T03:32:27;163237.91;;;17.73
71897;BMP280;59767;51.344;12.362;2023-07-20T03:35:31;163231.34;;;17.71
71897;BMP280;59767;51.344;12.362;2023-07-20T03:38:36;163233.97;;;17.72
71897;BMP280;59767;51.344;12.362;2023-07-20T03:41:40;163239.19;;;17.74
71897;BMP280;59767;51.344;12.362;2023-07-20T03:44:44;163232.69;;;17.71
71897;BMP280;59767;51.344;12.362;2023-07-20T03:47:48;163232.69;;;17.71
71897;BMP280;59767;51.344;12.362;2023-07-20T03:50:53;163222.16;;;17.67
71897;BMP280;59767;51.344;12.362;2023-07-20T03:53:58;163223.50;;;17.68
71897;BMP280;59767;51.344;12.362;2023-07-20T03:57:02;163230.00;;;17.70
71897;BMP280;59767;51.344;12.362;2023-07-20T04:00:07;163215.59;;;17.65
71897;BMP280;59767;51.344;12.362;2023-07-20T04:03:12;163220.81;;;17.67
71897;BMP280;59767;51.344;12.362;2023-07-20T04:06:16;163239.19;;;17.74
71897;BMP280;59767;51.344;12.362;2023-07-20T04:09:21;163236.63;;;17.73
71897;BMP280;59767;51.344;12.362;2023-07-20T04:12:26;163237.91;;;17.73
71897;BMP280;59767;51.344;12.362;2023-07-20T04:15:30;163256.28;;;17.80
71897;BMP280;59767;51.344;12.362;2023-07-20T04:18:33;163258.91;;;17.81
71897;BMP280;59767;51.344;12.362;2023-07-20T04:21:41;163270.69;;;17.86
71897;BMP280;59767;51.344;12.362;2023-07-20T04:24:45;163258.91;;;17.81
71897;BMP280;59767;51.344;12.362;2023-07-20T04:27:48;163273.38;;;17.87
71897;BMP280;59767;51.344;12.362;2023-07-20T04:30:53;163261.56;;;17.82
71897;BMP280;59767;51.344;12.362;2023-07-20T04:33:58;163279.88;;;17.89
71897;BMP280;59767;51.344;12.362;2023-07-20T04:37:02;163279.88;;;17.89
71897;BMP280;59767;51.344;12.362;2023-07-20T04:40:06;163275.94;;;17.88
71897;BMP280;59767;51.344;12.362;2023-07-20T04:43:11;163275.94;;;17.88
71897;BMP280;59767;51.344;12.362;2023-07-20T04:46:14;163285.16;;;17.91
71897;BMP280;59767;51.344;12.362;2023-07-20T04:49:19;163270.69;;;17.86
71897;BMP280;59767;51.344;12.362;2023-07-20T04:52:23;163266.75;;;17.84
71897;BMP280;59767;51.344;12.362;2023-07-20T04:55:49;163285.16;;;17.91
71897;BMP280;59767;51.344;12.362;2023-07-20T04:58:54;163291.69;;;17.94
71897;BMP280;59767;51.344;12.362;2023-07-20T05:01:58;163303.47;;;17.98
71897;BMP280;59767;51.344;12.362;2023-07-20T05:05:03;163312.72;;;18.02
71897;BMP280;59767;51.344;12.362;2023-07-20T05:08:09;163323.25;;;18.06
71897;BMP280;59767;51.344;12.362;2023-07-20T05:11:13;163327.13;;;18.07
71897;BMP280;59767;51.344;12.362;2023-07-20T05:14:17;163317.97;;;18.04
71897;BMP280;59767;51.344;12.362;2023-07-20T05:17:21;163320.56;;;18.05
71897;BMP280;59767;51.344;12.362;2023-07-20T05:20:25;163324.53;;;18.06
71897;BMP280;59767;51.344;12.362;2023-07-20T05:23:30;163341.56;;;18.13
71897;BMP280;59767;51.344;12.362;2023-07-20T05:26:33;163341.56;;;18.13
71897;BMP280;59767;51.344;12.362;2023-07-20T05:29:40;163353.38;;;18.17
71897;BMP280;59767;51.344;12.362;2023-07-20T05:32:46;163362.56;;;18.21
71897;BMP280;59767;51.344;12.362;2023-07-20T05:35:55;163367.84;;;18.23
71897;BMP280;59767;51.344;12.362;2023-07-20T05:38:58;163365.22;;;18.22
71897;BMP280;59767;51.344;12.362;2023-07-20T05:42:03;163359.97;;;18.20
71897;BMP280;59767;51.344;12.362;2023-07-20T05:45:07;163338.94;;;18.12
71897;BMP280;59767;51.344;12.362;2023-07-20T05:48:11;163337.59;;;18.11
71897;BMP280;59767;51.344;12.362;2023-07-20T05:51:16;163338.94;;;18.12
71897;BMP280;59767;51.344;12.362;2023-07-20T05:54:20;163348.19;;;18.15
71897;BMP280;59767;51.344;12.362;2023-07-20T05:57:24;163380.97;;;18.28
71897;BMP280;59767;51.344;12.362;2023-07-20T06:00:28;163411.16;;;18.39
71897;BMP280;59767;51.344;12.362;2023-07-20T06:03:32;163433.44;;;18.48
71897;BMP280;59767;51.344;12.362;2023-07-20T06:06:37;163436.09;;;18.49
71897;BMP280;59767;51.344;12.362;2023-07-20T06:09:42;163468.94;;;18.61
71897;BMP280;59767;51.344;12.362;2023-07-20T06:12:45;163528.03;;;18.84
71897;BMP280;59767;51.344;12.362;2023-07-20T06:15:49;163537.19;;;18.87
71897;BMP280;59767;51.344;12.362;2023-07-20T06:18:54;163552.94;;;18.93
71897;BMP280;59767;51.344;12.362;2023-07-20T06:21:57;163569.97;;;19.00
71897;BMP280;59767;51.344;12.362;2023-07-20T06:25:02;163606.81;;;19.14
71897;BMP280;59767;51.344;12.362;2023-07-20T06:28:06;163644.81;;;19.28
71897;BMP280;59767;51.344;12.362;2023-07-20T06:31:10;163631.75;;;19.23
71897;BMP280;59767;51.344;12.362;2023-07-20T06:34:15;163598.91;;;19.11
71897;BMP280;59767;51.344;12.362;2023-07-20T06:37:21;163573.94;;;19.01
71897;BMP280;59767;51.344;12.362;2023-07-20T06:40:25;163558.19;;;18.95
71897;BMP280;59767;51.344;12.362;2023-07-20T06:43:32;163596.28;;;19.10
71897;BMP280;59767;51.344;12.362;2023-07-20T06:46:39;163636.94;;;19.25
71897;BMP280;59767;51.344;12.362;2023-07-20T06:49:43;163701.28;;;19.49
71897;BMP280;59767;51.344;12.362;2023-07-20T06:52:47;163751.22;;;19.68
71897;BMP280;59767;51.344;12.362;2023-07-20T06:55:52;163738.06;;;19.63
71897;BMP280;59767;51.344;12.362;2023-07-20T06:58:56;163732.84;;;19.61
71897;BMP280;59767;51.344;12.362;2023-07-20T07:02:00;163765.66;;;19.74
71897;BMP280;59767;51.344;12.362;2023-07-20T07:05:04;163751.22;;;19.68
71897;BMP280;59767;51.344;12.362;2023-07-20T07:08:12;163746.00;;;19.66
71897;BMP280;59767;51.344;12.362;2023-07-20T07:11:16;163769.56;;;19.75
71897;BMP280;59767;51.344;12.362;2023-07-20T07:14:21;163769.56;;;19.75
71897;BMP280;59767;51.344;12.362;2023-07-20T07:17:25;163768.34;;;19.75
71897;BMP280;59767;51.344;12.362;2023-07-20T07:20:29;163763.03;;;19.73
71897;BMP280;59767;51.344;12.362;2023-07-20T07:23:34;163776.19;;;19.78
71897;BMP280;59767;51.344;12.362;2023-07-20T07:26:38;163795.88;;;19.85
71897;BMP280;59767;51.344;12.362;2023-07-20T07:29:42;163788.00;;;19.82
71897;BMP280;59767;51.344;12.362;2023-07-20T07:32:50;163772.25;;;19.76
71897;BMP280;59767;51.344;12.362;2023-07-20T07:35:54;163751.22;;;19.68
71897;BMP280;59767;51.344;12.362;2023-07-20T07:38:58;163748.59;;;19.67
71897;BMP280;59767;51.344;12.362;2023-07-20T07:42:05;163755.19;;;19.70
71897;BMP280;59767;51.344;12.362;2023-07-20T07:45:10;163819.56;;;19.94
71897;BMP280;59767;51.344;12.362;2023-07-20T07:48:14;163911.47;;;20.29
71897;BMP280;59767;51.344;12.362;2023-07-20T07:51:18;164024.44;;;20.72
71897;BMP280;59767;51.344;12.362;2023-07-20T07:54:23;164158.44;;;21.23
71897;BMP280;59767;51.344;12.362;2023-07-20T07:57:27;164297.81;;;21.76
71897;BMP280;59767;51.344;12.362;2023-07-20T08:00:31;164500.19;;;22.53
71897;BMP280;59767;51.344;12.362;2023-07-20T08:03:36;164441.03;;;22.31
71897;BMP280;59767;51.344;12.362;2023-07-20T08:06:41;164299.09;;;21.77
71897;BMP280;59767;51.344;12.362;2023-07-20T08:09:44;164155.84;;;21.22
71897;BMP280;59767;51.344;12.362;2023-07-20T08:12:49;164115.13;;;21.07
71897;BMP280;59767;51.344;12.362;2023-07-20T08:15:53;164090.19;;;20.97
71897;BMP280;59767;51.344;12.362;2023-07-20T08:18:58;164229.41;;;21.50
71897;BMP280;59767;51.344;12.362;2023-07-20T08:22:02;164425.28;;;22.25
71897;BMP280;59767;51.344;12.362;2023-07-20T08:25:06;164418.75;;;22.22
71897;BMP280;59767;51.344;12.362;2023-07-20T08:28:13;164316.19;;;21.83
71897;BMP280;59767;51.344;12.362;2023-07-20T08:31:17;164230.75;;;21.51
71897;BMP280;59767;51.344;12.362;2023-07-20T08:34:22;164174.25;;;21.29
71897;BMP280;59767;51.344;12.362;2023-07-20T08:37:34;164105.91;;;21.03
71897;BMP280;59767;51.344;12.362;2023-07-20T08:40:41;164065.19;;;20.88
71897;BMP280;59767;51.344;12.362;2023-07-20T08:43:46;164258.38;;;21.61
71897;BMP280;59767;51.344;12.362;2023-07-20T08:46:51;164656.69;;;23.12
71897;BMP280;59767;51.344;12.362;2023-07-20T08:49:56;165098.63;;;24.80
71897;BMP280;59767;51.344;12.362;2023-07-20T08:53:01;165352.59;;;25.76
71897;BMP280;59767;51.344;12.362;2023-07-20T08:56:06;165346.00;;;25.74
71897;BMP280;59767;51.344;12.362;2023-07-20T08:59:13;165139.44;;;24.95
71897;BMP280;59767;51.344;12.362;2023-07-20T09:02:18;165219.69;;;25.26
71897;BMP280;59767;51.344;12.362;2023-07-20T09:05:24;165349.91;;;25.75
71897;BMP280;59767;51.344;12.362;2023-07-20T09:08:30;165301.25;;;25.57
71897;BMP280;59767;51.344;12.362;2023-07-20T09:11:35;164998.66;;;24.42
71897;BMP280;59767;51.344;12.362;2023-07-20T09:14:39;164750.03;;;23.48
71897;BMP280;59767;51.344;12.362;2023-07-20T09:17:47;164676.41;;;23.20
71897;BMP280;59767;51.344;12.362;2023-07-20T09:20:52;164496.28;;;22.52
71897;BMP280;59767;51.344;12.362;2023-07-20T09:23:56;164439.78;;;22.30
71897;BMP280;59767;51.344;12.362;2023-07-20T09:27:01;164437.13;;;22.29
71897;BMP280;59767;51.344;12.362;2023-07-20T09:30:08;164399.00;;;22.15
71897;BMP280;59767;51.344;12.362;2023-07-20T09:33:21;164335.94;;;21.91
71897;BMP280;59767;51.344;12.362;2023-07-20T09:36:28;164313.56;;;21.82
71897;BMP280;59767;51.344;12.362;2023-07-20T09:39:45;164262.28;;;21.63
71897;BMP280;59767;51.344;12.362;2023-07-20T09:42:54;164179.47;;;21.31
71897;BMP280;59767;51.344;12.362;2023-07-20T09:46:07;164077.00;;;20.92
71897;BMP280;59767;51.344;12.362;2023-07-20T09:49:11;163960.09;;;20.48
71897;BMP280;59767;51.344;12.362;2023-07-20T09:52:19;163853.66;;;20.07
71897;BMP280;59767;51.344;12.362;2023-07-20T09:55:26;163770.91;;;19.76
71897;BMP280;59767;51.344;12.362;2023-07-20T09:58:31;163682.91;;;19.42
71897;BMP280;59767;51.344;12.362;2023-07-20T10:01:37;163659.28;;;19.34
71897;BMP280;59767;51.344;12.362;2023-07-20T10:04:43;163639.63;;;19.26
71897;BMP280;59767;51.344;12.362;2023-07-20T10:07:49;163629.09;;;19.22
71897;BMP280;59767;51.344;12.362;2023-07-20T10:10:54;163676.38;;;19.40
71897;BMP280;59767;51.344;12.362;2023-07-20T10:13:59;163742.03;;;19.65
71897;BMP280;59767;51.344;12.362;2023-07-20T10:17:05;163791.91;;;19.84
71897;BMP280;59767;51.344;12.362;2023-07-20T10:20:10;163828.69;;;19.98
71897;BMP280;59767;51.344;12.362;2023-07-20T10:23:15;163864.19;;;20.11
71897;BMP280;59767;51.344;12.362;2023-07-20T10:26:19;163890.41;;;20.21
71897;BMP280;59767;51.344;12.362;2023-07-20T10:29:24;163851.03;;;20.06
71897;BMP280;59767;51.344;12.362;2023-07-20T10:32:34;163773.56;;;19.77
71897;BMP280;59767;51.344;12.362;2023-07-20T10:36:03;163768.34;;;19.75
71897;BMP280;59767;51.344;12.362;2023-07-20T10:39:22;163774.84;;;19.77
71897;BMP280;59767;51.344;12.362;2023-07-20T10:42:32;163774.84;;;19.77
71897;BMP280;59767;51.344;12.362;2023-07-20T10:45:40;163769.56;;;19.75
71897;BMP280;59767;51.344;12.362;2023-07-20T10:49:05;163772.25;;;19.76
71897;BMP280;59767;51.344;12.362;2023-07-20T10:52:10;163746.00;;;19.66
71897;BMP280;59767;51.344;12.362;2023-07-20T10:55:15;163774.84;;;19.77
71897;BMP280;59767;51.344;12.362;2023-07-20T10:58:20;163827.41;;;19.97
71897;BMP280;59767;51.344;12.362;2023-07-20T11:01:30;163855.00;;;20.08
71897;BMP280;59767;51.344;12.362;2023-07-20T11:04:41;163882.53;;;20.18
71897;BMP280;59767;51.344;12.362;2023-07-20T11:07:45;163931.22;;;20.37
71897;BMP280;59767;51.344;12.362;2023-07-20T11:11:26;164007.38;;;20.66
71897;BMP280;59767;51.344;12.362;2023-07-20T11:14:31;164080.97;;;20.94
71897;BMP280;59767;51.344;12.362;2023-07-20T11:17:38;164115.13;;;21.07
71897;BMP280;59767;51.344;12.362;2023-07-20T11:20:43;164124.31;;;21.10
71897;BMP280;59767;51.344;12.362;2023-07-20T11:23:48;164059.94;;;20.86
71897;BMP280;59767;51.344;12.362;2023-07-20T11:26:53;164016.56;;;20.69
71897;BMP280;59767;51.344;12.362;2023-07-20T11:29:57;163978.44;;;20.55
71897;BMP280;59767;51.344;12.362;2023-07-20T11:33:01;163971.91;;;20.52
71897;BMP280;59767;51.344;12.362;2023-07-20T11:36:06;163950.88;;;20.44
71897;BMP280;59767;51.344;12.362;2023-07-20T11:39:14;163925.91;;;20.35
71897;BMP280;59767;51.344;12.362;2023-07-20T11:42:19;163939.06;;;20.40
71897;BMP280;59767;51.344;12.362;2023-07-20T11:45:26;163936.41;;;20.39
71897;BMP280;59767;51.344;12.362;2023-07-20T11:48:31;163950.88;;;20.44
71897;BMP280;59767;51.344;12.362;2023-07-20T11:51:36;164010.00;;;20.67
71897;BMP280;59767;51.344;12.362;2023-07-20T11:54:42;164037.59;;;20.77
71897;BMP280;59767;51.344;12.362;2023-07-20T12:01:06;164040.28;;;20.78
71897;BMP280;59767;51.344;12.362;2023-07-20T12:04:10;164016.56;;;20.69
71897;BMP280;59767;51.344;12.362;2023-07-20T12:07:14;163981.09;;;20.56
71897;BMP280;59767;51.344;12.362;2023-07-20T12:10:26;163971.91;;;20.52
71897;BMP280;59767;51.344;12.362;2023-07-20T12:13:42;164007.38;;;20.66
71897;BMP280;59767;51.344;12.362;2023-07-20T12:16:53;164058.63;;;20.85
71897;BMP280;59767;51.344;12.362;2023-07-20T12:19:58;164080.97;;;20.94
71897;BMP280;59767;51.344;12.362;2023-07-20T12:23:04;164126.94;;;21.11
71897;BMP280;59767;51.344;12.362;2023-07-20T12:26:10;164129.56;;;21.12
71897;BMP280;59767;51.344;12.362;2023-07-20T12:29:14;164179.47;;;21.31
71897;BMP280;59767;51.344;12.362;2023-07-20T12:32:18;164232.03;;;21.51
71897;BMP280;59767;51.344;12.362;2023-07-20T12:35:22;164279.41;;;21.69
71897;BMP280;59767;51.344;12.362;2023-07-20T12:38:26;164281.97;;;21.70
71897;BMP280;59767;51.344;12.362;2023-07-20T12:41:31;164209.72;;;21.43
71897;BMP280;59767;51.344;12.362;2023-07-20T12:44:35;164153.22;;;21.21
71897;BMP280;59767;51.344;12.362;2023-07-20T12:47:39;164146.63;;;21.19
71897;BMP280;59767;51.344;12.362;2023-07-20T12:50:44;164167.66;;;21.27
71897;BMP280;59767;51.344;12.362;2023-07-20T12:53:49;164188.69;;;21.35
71897;BMP280;59767;51.344;12.362;2023-07-20T12:56:53;164196.59;;;21.38
71897;BMP280;59767;51.344;12.362;2023-07-20T13:00:01;164171.63;;;21.28
71897;BMP280;59767;51.344;12.362;2023-07-20T13:03:07;164187.41;;;21.34
71897;BMP280;59767;51.344;12.362;2023-07-20T13:06:13;164191.31;;;21.36
71897;BMP280;59767;51.344;12.362;2023-07-20T13:09:20;164174.25;;;21.29
71897;BMP280;59767;51.344;12.362;2023-07-20T13:12:25;164179.47;;;21.31
71897;BMP280;59767;51.344;12.362;2023-07-20T13:15:30;164191.31;;;21.36
71897;BMP280;59767;51.344;12.362;2023-07-20T13:18:35;164184.78;;;21.33
71897;BMP280;59767;51.344;12.362;2023-07-20T13:21:39;164184.78;;;21.33
71897;BMP280;59767;51.344;12.362;2023-07-20T13:24:47;164197.88;;;21.38
71897;BMP280;59767;51.344;12.362;2023-07-20T13:27:54;164254.41;;;21.60
71897;BMP280;59767;51.344;12.362;2023-07-20T13:30:59;164291.19;;;21.74
71897;BMP280;59767;51.344;12.362;2023-07-20T13:34:03;164303.00;;;21.78
71897;BMP280;59767;51.344;12.362;2023-07-20T13:37:11;164250.44;;;21.58
71897;BMP280;59767;51.344;12.362;2023-07-20T13:40:16;164216.31;;;21.45
71897;BMP280;59767;51.344;12.362;2023-07-20T13:43:22;164243.91;;;21.56
71897;BMP280;59767;51.344;12.362;2023-07-20T13:46:26;164250.44;;;21.58
71897;BMP280;59767;51.344;12.362;2023-07-20T13:49:33;164238.63;;;21.54
71897;BMP280;59767;51.344;12.362;2023-07-20T13:52:49;164239.97;;;21.54
71897;BMP280;59767;51.344;12.362;2023-07-20T13:55:53;164222.88;;;21.48
71897;BMP280;59767;51.344;12.362;2023-07-20T13:58:59;164238.63;;;21.54
71897;BMP280;59767;51.344;12.362;2023-07-20T14:02:05;164274.09;;;21.67
71897;BMP280;59767;51.344;12.362;2023-07-20T14:05:12;164279.41;;;21.69
71897;BMP280;59767;51.344;12.362;2023-07-20T14:08:18;164258.38;;;21.61
71897;BMP280;59767;51.344;12.362;2023-07-20T14:11:23;164276.78;;;21.68
71897;BMP280;59767;51.344;12.362;2023-07-20T14:14:30;164321.41;;;21.85
71897;BMP280;59767;51.344;12.362;2023-07-20T14:17:34;164316.19;;;21.83
71897;BMP280;59767;51.344;12.362;2023-07-20T14:20:41;164324.03;;;21.86
71897;BMP280;59767;51.344;12.362;2023-07-20T14:23:47;164389.84;;;22.11
71897;BMP280;59767;51.344;12.362;2023-07-20T14:26:52;164387.16;;;22.10
71897;BMP280;59767;51.344;12.362;2023-07-20T14:29:55;164354.28;;;21.98
71897;BMP280;59767;51.344;12.362;2023-07-20T14:33:00;164306.97;;;21.80
71897;BMP280;59767;51.344;12.362;2023-07-20T14:36:04;164316.19;;;21.83
71897;BMP280;59767;51.344;12.362;2023-07-20T14:39:09;164306.97;;;21.80
71897;BMP280;59767;51.344;12.362;2023-07-20T14:42:13;164268.91;;;21.65
71897;BMP280;59767;51.344;12.362;2023-07-20T14:45:17;164272.81;;;21.67
71897;BMP280;59767;51.344;12.362;2023-07-20T14:48:22;164267.56;;;21.65
71897;BMP280;59767;51.344;12.362;2023-07-20T14:51:26;164272.81;;;21.67
71897;BMP280;59767;51.344;12.362;2023-07-20T14:54:38;164284.66;;;21.71
71897;BMP280;59767;51.344;12.362;2023-07-20T14:57:43;164287.28;;;21.72
71897;BMP280;59767;51.344;12.362;2023-07-20T15:00:47;164270.16;;;21.66
71897;BMP280;59767;51.344;12.362;2023-07-20T15:03:51;164308.31;;;21.80
71897;BMP280;59767;51.344;12.362;2023-07-20T15:07:00;164343.78;;;21.94
71897;BMP280;59767;51.344;12.362;2023-07-20T15:10:04;164396.38;;;22.14
71897;BMP280;59767;51.344;12.362;2023-07-20T15:13:09;164397.69;;;22.14
71897;BMP280;59767;51.344;12.362;2023-07-20T15:16:13;164448.94;;;22.34
71897;BMP280;59767;51.344;12.362;2023-07-20T15:19:18;164460.78;;;22.38
71897;BMP280;59767;51.344;12.362;2023-07-20T15:22:22;164444.97;;;22.32
71897;BMP280;59767;51.344;12.362;2023-07-20T15:25:27;164502.81;;;22.54
71897;BMP280;59767;51.344;12.362;2023-07-20T15:28:31;164506.81;;;22.56
71897;BMP280;59767;51.344;12.362;2023-07-20T15:31:35;164513.34;;;22.58
71897;BMP280;59767;51.344;12.362;2023-07-20T15:34:43;164484.44;;;22.47
71897;BMP280;59767;51.344;12.362;2023-07-20T15:37:47;164452.84;;;22.35
71897;BMP280;59767;51.344;12.362;2023-07-20T15:40:51;164419.97;;;22.23
71897;BMP280;59767;51.344;12.362;2023-07-20T15:43:56;164410.81;;;22.19
71897;BMP280;59767;51.344;12.362;2023-07-20T15:47:00;164408.19;;;22.18
71897;BMP280;59767;51.344;12.362;2023-07-20T15:50:05;164416.06;;;22.21
71897;BMP280;59767;51.344;12.362;2023-07-20T15:53:10;164397.69;;;22.14
71897;BMP280;59767;51.344;12.362;2023-07-20T15:56:14;164399.00;;;22.15
71897;BMP280;59767;51.344;12.362;2023-07-20T15:59:19;164391.06;;;22.12
71897;BMP280;59767;51.344;12.362;2023-07-20T16:02:23;164374.00;;;22.05
71897;BMP280;59767;51.344;12.362;2023-07-20T16:05:27;164379.28;;;22.07
71897;BMP280;59767;51.344;12.362;2023-07-20T16:08:35;164375.31;;;22.06
71897;BMP280;59767;51.344;12.362;2023-07-20T16:11:39;164405.56;;;22.17
71897;BMP280;59767;51.344;12.362;2023-07-20T16:14:43;164397.69;;;22.14
71897;BMP280;59767;51.344;12.362;2023-07-20T16:17:50;164413.44;;;22.20
71897;BMP280;59767;51.344;12.362;2023-07-20T16:20:55;164447.66;;;22.33
71897;BMP280;59767;51.344;12.362;2023-07-20T16:24:00;164410.81;;;22.19
71897;BMP280;59767;51.344;12.362;2023-07-20T16:27:05;164418.75;;;22.22
71897;BMP280;59767;51.344;12.362;2023-07-20T16:30:10;164433.16;;;22.28
71897;BMP280;59767;51.344;12.362;2023-07-20T16:33:15;164447.66;;;22.33
71897;BMP280;59767;51.344;12.362;2023-07-20T16:36:19;164442.34;;;22.31
71897;BMP280;59767;51.344;12.362;2023-07-20T16:39:23;164447.66;;;22.33
71897;BMP280;59767;51.344;12.362;2023-07-20T16:42:30;164423.94;;;22.24
71897;BMP280;59767;51.344;12.362;2023-07-20T16:45:38;164416.06;;;22.21
71897;BMP280;59767;51.344;12.362;2023-07-20T16:48:42;164412.09;;;22.20
71897;BMP280;59767;51.344;12.362;2023-07-20T16:51:49;164439.78;;;22.30
71897;BMP280;59767;51.344;12.362;2023-07-20T16:54:54;164425.28;;;22.25
71897;BMP280;59767;51.344;12.362;2023-07-20T16:57:58;164412.09;;;22.20
71897;BMP280;59767;51.344;12.362;2023-07-20T17:01:04;164427.91;;;22.26
71897;BMP280;59767;51.344;12.362;2023-07-20T17:04:10;164419.97;;;22.23
71897;BMP280;59767;51.344;12.362;2023-07-20T17:07:18;164400.34;;;22.15
71897;BMP280;59767;51.344;12.362;2023-07-20T17:10:22;164389.84;;;22.11
71897;BMP280;59767;51.344;12.362;2023-07-20T17:13:27;164416.06;;;22.21
71897;BMP280;59767;51.344;12.362;2023-07-20T17:16:31;164422.66;;;22.24
71897;BMP280;59767;51.344;12.362;2023-07-20T17:19:35;164417.41;;;22.22
71897;BMP280;59767;51.344;12.362;2023-07-20T17:22:39;164416.06;;;22.21
71897;BMP280;59767;51.344;12.362;2023-07-20T17:25:47;164401.63;;;22.16